CYPA - Prince Albert Glass Field

Pirep is a free, collaborative database of all public and private airports located within the United States. All pilots are welcome to contribute, edit, and improve any airport they have local knowledge about, no registration required.
Are you familiar with this airport? Help out other pilots by adding your local knowledge.
Uploaded photos will be licensed under a CC BY-SA 4.0 license. Please only upload photos you have the rights to use.
Tags
Public
Undocu­mented
METAR / TAF
Edit Tags
Food
Camping
Lodging
Car Rental
Bicycles
Swimming
Golfing
Fishing
Hot Springs
Museum
Flying Clubs
Airpark
Upcoming Events
No upcoming events. Is anything happening here soon?
*
*
*

Where exactly on/near the airport is this event taking place?

Is there a webpage with more information for this event?

Who should be contacted for more information?

What is this event all about?

Repeat every
Description
Transient Parking
Fuel Location
Landing & Tie-down Fees
Crew Car Availability
Flying Clubs
WiFi Access
Airport Statistics
Location: Prince Albert, Saskatchewan
Elevation: 1,405ft
Runway 08/26: 5,000ft
Runway 16/34: 2,500ft
Warning: This airport was imported from a non-authoritative source. It's public/private status may not be accurate.
Access: Open to the public
Current Weather — VFR
  • Weather data is strictly informational and not for flight planning purposes.
  • METAR
    2024-04-24 05:00:00 CST
    Ceiling Wind Temperature Dewpoint Weather Visbility
    Sky clear 60° @ 5kt 32°F 26°F N/A 15SM
    Clouds: Few @ 12,000ft, Few @ 27,000ft
    Raw: CYPA 241100Z 06005KT 15SM FEW120 FEW270 00/M03 A2992 RMK AC1CI2 AC TR SLP150
  • TAF
    2024-04-24 01:00:00 CST – 2024-04-24 08:00:00 CST
    Ceiling Wind Weather Visbility
    12,000ft 140° @ 5kt N/A 6SM
    Clouds: Broken @ 12,000ft
    Raw: TAF CYPA 240640Z 2407/2419 14005KT P6SM BKN120 FM241400 14008KT P6SM FEW120 RMK NXT FCST BY 241300Z
  • TAF
    2024-04-24 08:00:00 CST – 2024-04-24 13:00:00 CST
    Ceiling Wind Weather Visbility
    Sky clear 140° @ 8kt N/A 6SM
    Clouds: Few @ 12,000ft
    Raw: TAF CYPA 240640Z 2407/2419 14005KT P6SM BKN120 FM241400 14008KT P6SM FEW120 RMK NXT FCST BY 241300Z
Click/tap to add an annotation marker to the map
Airport Webcams
No webcams added yet.
Direct links to live image URLs will be displayed inline on this page. URLs to separate webpages will be linked to.
URL:
Direct links to live image URLs will be displayed inline on this page. URLs to separate webpages will be linked to.
URL:
Comments
Leave a comment What was your experience like at this airport?